sensor_id;sensor_type;location;lat;lon;timestamp;P1;durP1;ratioP1;P2;durP2;ratioP2
8714;SDS011;4394;51.208;8.904;2023-05-10T00:00:59;6.77;;;6.07;;
8714;SDS011;4394;51.208;8.904;2023-05-10T00:03:47;7.17;;;6.30;;
8714;SDS011;4394;51.208;8.904;2023-05-10T00:06:35;7.77;;;6.13;;
8714;SDS011;4394;51.208;8.904;2023-05-10T00:09:23;6.30;;;5.70;;
8714;SDS011;4394;51.208;8.904;2023-05-10T00:12:11;7.20;;;5.50;;
8714;SDS011;4394;51.208;8.904;2023-05-10T00:14:59;5.87;;;4.87;;
8714;SDS011;4394;51.208;8.904;2023-05-10T00:17:48;6.00;;;5.40;;
8714;SDS011;4394;51.208;8.904;2023-05-10T00:20:36;7.50;;;5.50;;
8714;SDS011;4394;51.208;8.904;2023-05-10T00:23:24;5.33;;;4.83;;
8714;SDS011;4394;51.208;8.904;2023-05-10T00:26:12;5.73;;;5.17;;
8714;SDS011;4394;51.208;8.904;2023-05-10T00:29:01;4.63;;;4.20;;
8714;SDS011;4394;51.208;8.904;2023-05-10T00:31:49;4.30;;;3.50;;
8714;SDS011;4394;51.208;8.904;2023-05-10T00:34:38;3.53;;;3.23;;
8714;SDS011;4394;51.208;8.904;2023-05-10T00:37:27;3.90;;;3.53;;
8714;SDS011;4394;51.208;8.904;2023-05-10T00:40:15;3.30;;;3.00;;
8714;SDS011;4394;51.208;8.904;2023-05-10T00:43:03;3.37;;;3.07;;
8714;SDS011;4394;51.208;8.904;2023-05-10T00:45:52;4.13;;;3.30;;
8714;SDS011;4394;51.208;8.904;2023-05-10T00:48:41;3.70;;;3.40;;
8714;SDS011;4394;51.208;8.904;2023-05-10T00:51:31;3.20;;;2.90;;
8714;SDS011;4394;51.208;8.904;2023-05-10T00:54:20;3.30;;;3.00;;
8714;SDS011;4394;51.208;8.904;2023-05-10T00:57:08;3.13;;;2.83;;
8714;SDS011;4394;51.208;8.904;2023-05-10T00:59:56;3.50;;;3.20;;
8714;SDS011;4394;51.208;8.904;2023-05-10T01:02:46;3.30;;;3.00;;
8714;SDS011;4394;51.208;8.904;2023-05-10T01:05:36;4.13;;;3.17;;
8714;SDS011;4394;51.208;8.904;2023-05-10T01:08:28;4.20;;;3.30;;
8714;SDS011;4394;51.208;8.904;2023-05-10T01:11:17;3.30;;;3.00;;
8714;SDS011;4394;51.208;8.904;2023-05-10T01:14:05;3.17;;;2.87;;
8714;SDS011;4394;51.208;8.904;2023-05-10T01:16:54;2.77;;;2.00;;
8714;SDS011;4394;51.208;8.904;2023-05-10T01:19:43;2.30;;;2.10;;
8714;SDS011;4394;51.208;8.904;2023-05-10T01:22:38;1.57;;;1.47;;
8714;SDS011;4394;51.208;8.904;2023-05-10T01:25:54;1.30;;;1.20;;
8714;SDS011;4394;51.208;8.904;2023-05-10T01:29:19;1.10;;;0.90;;
8714;SDS011;4394;51.208;8.904;2023-05-10T01:32:22;0.80;;;0.80;;
8714;SDS011;4394;51.208;8.904;2023-05-10T01:35:17;0.60;;;0.50;;
8714;SDS011;4394;51.208;8.904;2023-05-10T01:38:16;1.10;;;0.73;;
8714;SDS011;4394;51.208;8.904;2023-05-10T01:41:13;0.70;;;0.70;;
8714;SDS011;4394;51.208;8.904;2023-05-10T01:44:07;0.87;;;0.73;;
8714;SDS011;4394;51.208;8.904;2023-05-10T01:47:02;1.00;;;1.00;;
8714;SDS011;4394;51.208;8.904;2023-05-10T01:49:55;0.80;;;0.80;;
8714;SDS011;4394;51.208;8.904;2023-05-10T01:52:47;2.50;;;0.80;;
8714;SDS011;4394;51.208;8.904;2023-05-10T01:55:39;1.20;;;1.10;;
8714;SDS011;4394;51.208;8.904;2023-05-10T01:58:31;0.80;;;0.80;;
8714;SDS011;4394;51.208;8.904;2023-05-10T02:01:21;0.80;;;0.80;;
8714;SDS011;4394;51.208;8.904;2023-05-10T02:04:11;0.90;;;0.90;;
8714;SDS011;4394;51.208;8.904;2023-05-10T02:07:04;1.07;;;0.77;;
8714;SDS011;4394;51.208;8.904;2023-05-10T02:09:53;2.83;;;0.80;;
8714;SDS011;4394;51.208;8.904;2023-05-10T02:12:43;0.60;;;0.60;;
8714;SDS011;4394;51.208;8.904;2023-05-10T02:15:33;1.23;;;0.50;;
8714;SDS011;4394;51.208;8.904;2023-05-10T02:18:23;0.40;;;0.40;;
8714;SDS011;4394;51.208;8.904;2023-05-10T02:21:13;0.40;;;0.40;;
8714;SDS011;4394;51.208;8.904;2023-05-10T02:24:04;0.33;;;0.33;;
8714;SDS011;4394;51.208;8.904;2023-05-10T02:26:54;0.43;;;0.43;;
8714;SDS011;4394;51.208;8.904;2023-05-10T02:29:43;0.30;;;0.30;;
8714;SDS011;4394;51.208;8.904;2023-05-10T02:32:33;1.50;;;0.50;;
8714;SDS011;4394;51.208;8.904;2023-05-10T02:35:22;0.40;;;0.40;;
8714;SDS011;4394;51.208;8.904;2023-05-10T02:38:13;1.47;;;0.50;;
8714;SDS011;4394;51.208;8.904;2023-05-10T02:41:03;0.93;;;0.37;;
8714;SDS011;4394;51.208;8.904;2023-05-10T02:43:53;0.23;;;0.20;;
8714;SDS011;4394;51.208;8.904;2023-05-10T02:46:46;0.30;;;0.30;;
8714;SDS011;4394;51.208;8.904;2023-05-10T02:49:34;0.67;;;0.27;;
8714;SDS011;4394;51.208;8.904;2023-05-10T02:52:23;0.87;;;0.27;;
8714;SDS011;4394;51.208;8.904;2023-05-10T02:55:14;0.63;;;0.60;;
8714;SDS011;4394;51.208;8.904;2023-05-10T02:58:04;0.93;;;0.40;;
8714;SDS011;4394;51.208;8.904;2023-05-10T03:00:53;0.23;;;0.20;;
8714;SDS011;4394;51.208;8.904;2023-05-10T03:03:41;0.40;;;0.20;;
8714;SDS011;4394;51.208;8.904;2023-05-10T03:06:29;0.77;;;0.20;;
8714;SDS011;4394;51.208;8.904;2023-05-10T03:09:17;0.13;;;0.10;;
8714;SDS011;4394;51.208;8.904;2023-05-10T03:12:09;0.17;;;0.17;;
8714;SDS011;4394;51.208;8.904;2023-05-10T03:15:03;1.80;;;0.30;;
8714;SDS011;4394;51.208;8.904;2023-05-10T03:18:01;0.40;;;0.20;;
8714;SDS011;4394;51.208;8.904;2023-05-10T03:20:55;1.63;;;0.30;;
8714;SDS011;4394;51.208;8.904;2023-05-10T03:23:47;0.40;;;0.13;;
8714;SDS011;4394;51.208;8.904;2023-05-10T03:26:38;0.10;;;0.10;;
8714;SDS011;4394;51.208;8.904;2023-05-10T03:29:27;0.20;;;0.20;;
8714;SDS011;4394;51.208;8.904;2023-05-10T03:32:18;1.83;;;0.20;;
8714;SDS011;4394;51.208;8.904;2023-05-10T03:35:06;0.30;;;0.23;;
8714;SDS011;4394;51.208;8.904;2023-05-10T03:37:55;0.20;;;0.20;;
8714;SDS011;4394;51.208;8.904;2023-05-10T03:40:43;0.67;;;0.20;;
8714;SDS011;4394;51.208;8.904;2023-05-10T03:43:32;0.73;;;0.17;;
8714;SDS011;4394;51.208;8.904;2023-05-10T03:46:19;1.20;;;0.23;;
8714;SDS011;4394;51.208;8.904;2023-05-10T03:49:09;0.37;;;0.20;;
8714;SDS011;4394;51.208;8.904;2023-05-10T03:51:58;0.10;;;0.10;;
8714;SDS011;4394;51.208;8.904;2023-05-10T03:54:46;0.37;;;0.30;;
8714;SDS011;4394;51.208;8.904;2023-05-10T03:57:34;0.93;;;0.10;;
8714;SDS011;4394;51.208;8.904;2023-05-10T04:00:22;0.10;;;0.10;;
8714;SDS011;4394;51.208;8.904;2023-05-10T04:03:10;0.30;;;0.20;;
8714;SDS011;4394;51.208;8.904;2023-05-10T04:06:01;0.53;;;0.27;;
8714;SDS011;4394;51.208;8.904;2023-05-10T04:08:49;0.30;;;0.30;;
8714;SDS011;4394;51.208;8.904;2023-05-10T04:11:37;1.70;;;0.10;;
8714;SDS011;4394;51.208;8.904;2023-05-10T04:14:25;0.40;;;0.40;;
8714;SDS011;4394;51.208;8.904;2023-05-10T04:17:13;0.20;;;0.20;;
8714;SDS011;4394;51.208;8.904;2023-05-10T04:20:02;0.17;;;0.17;;
8714;SDS011;4394;51.208;8.904;2023-05-10T04:22:52;2.10;;;0.43;;
8714;SDS011;4394;51.208;8.904;2023-05-10T04:25:40;1.80;;;0.53;;
8714;SDS011;4394;51.208;8.904;2023-05-10T04:28:28;0.30;;;0.30;;
8714;SDS011;4394;51.208;8.904;2023-05-10T04:31:16;1.23;;;0.20;;
8714;SDS011;4394;51.208;8.904;2023-05-10T04:34:06;0.10;;;0.10;;
8714;SDS011;4394;51.208;8.904;2023-05-10T04:36:54;1.10;;;0.30;;
8714;SDS011;4394;51.208;8.904;2023-05-10T04:39:44;0.20;;;0.20;;
8714;SDS011;4394;51.208;8.904;2023-05-10T04:42:33;0.30;;;0.20;;
8714;SDS011;4394;51.208;8.904;2023-05-10T04:45:22;0.67;;;0.27;;
8714;SDS011;4394;51.208;8.904;2023-05-10T04:48:10;0.60;;;0.40;;
8714;SDS011;4394;51.208;8.904;2023-05-10T04:50:58;0.30;;;0.30;;
8714;SDS011;4394;51.208;8.904;2023-05-10T04:53:47;0.80;;;0.50;;
8714;SDS011;4394;51.208;8.904;2023-05-10T04:56:51;1.23;;;0.40;;
8714;SDS011;4394;51.208;8.904;2023-05-10T04:59:39;0.83;;;0.50;;
8714;SDS011;4394;51.208;8.904;2023-05-10T05:02:27;0.40;;;0.40;;
8714;SDS011;4394;51.208;8.904;2023-05-10T05:05:16;1.10;;;0.90;;
8714;SDS011;4394;51.208;8.904;2023-05-10T05:08:04;1.33;;;0.43;;
8714;SDS011;4394;51.208;8.904;2023-05-10T05:10:52;0.30;;;0.30;;
8714;SDS011;4394;51.208;8.904;2023-05-10T05:13:42;0.50;;;0.50;;
8714;SDS011;4394;51.208;8.904;2023-05-10T05:16:30;0.77;;;0.57;;
8714;SDS011;4394;51.208;8.904;2023-05-10T05:19:18;0.50;;;0.50;;
8714;SDS011;4394;51.208;8.904;2023-05-10T05:22:07;0.30;;;0.30;;
8714;SDS011;4394;51.208;8.904;2023-05-10T05:24:55;0.30;;;0.30;;
8714;SDS011;4394;51.208;8.904;2023-05-10T05:27:44;1.10;;;0.47;;
8714;SDS011;4394;51.208;8.904;2023-05-10T05:30:33;0.40;;;0.40;;
8714;SDS011;4394;51.208;8.904;2023-05-10T05:33:21;1.57;;;0.70;;
8714;SDS011;4394;51.208;8.904;2023-05-10T05:36:09;1.43;;;0.50;;
8714;SDS011;4394;51.208;8.904;2023-05-10T05:38:57;0.47;;;0.47;;
8714;SDS011;4394;51.208;8.904;2023-05-10T05:41:45;0.57;;;0.57;;
8714;SDS011;4394;51.208;8.904;2023-05-10T05:44:33;1.73;;;0.50;;
8714;SDS011;4394;51.208;8.904;2023-05-10T05:47:23;0.67;;;0.60;;
8714;SDS011;4394;51.208;8.904;2023-05-10T05:50:11;1.47;;;0.67;;
8714;SDS011;4394;51.208;8.904;2023-05-10T05:52:59;1.17;;;0.70;;
8714;SDS011;4394;51.208;8.904;2023-05-10T05:55:51;0.73;;;0.73;;
8714;SDS011;4394;51.208;8.904;2023-05-10T05:58:40;1.40;;;0.80;;
8714;SDS011;4394;51.208;8.904;2023-05-10T06:01:28;1.27;;;0.87;;
8714;SDS011;4394;51.208;8.904;2023-05-10T06:04:17;0.70;;;0.70;;
8714;SDS011;4394;51.208;8.904;2023-05-10T06:07:06;0.80;;;0.77;;
8714;SDS011;4394;51.208;8.904;2023-05-10T06:09:54;0.70;;;0.60;;
8714;SDS011;4394;51.208;8.904;2023-05-10T06:12:42;1.07;;;0.90;;
8714;SDS011;4394;51.208;8.904;2023-05-10T06:15:30;1.17;;;0.90;;
8714;SDS011;4394;51.208;8.904;2023-05-10T06:18:18;1.50;;;1.00;;
8714;SDS011;4394;51.208;8.904;2023-05-10T06:21:08;0.90;;;0.90;;
8714;SDS011;4394;51.208;8.904;2023-05-10T06:23:56;0.70;;;0.70;;
8714;SDS011;4394;51.208;8.904;2023-05-10T06:26:44;0.80;;;0.80;;
8714;SDS011;4394;51.208;8.904;2023-05-10T06:29:32;0.70;;;0.70;;
8714;SDS011;4394;51.208;8.904;2023-05-10T06:32:20;1.80;;;0.77;;
8714;SDS011;4394;51.208;8.904;2023-05-10T06:35:08;2.60;;;0.97;;
8714;SDS011;4394;51.208;8.904;2023-05-10T06:37:58;1.07;;;0.70;;
8714;SDS011;4394;51.208;8.904;2023-05-10T06:40:46;1.17;;;0.80;;
8714;SDS011;4394;51.208;8.904;2023-05-10T06:43:34;1.20;;;0.90;;
8714;SDS011;4394;51.208;8.904;2023-05-10T06:46:26;1.10;;;1.00;;
8714;SDS011;4394;51.208;8.904;2023-05-10T06:49:14;2.17;;;1.00;;
8714;SDS011;4394;51.208;8.904;2023-05-10T06:52:03;2.00;;;0.93;;
8714;SDS011;4394;51.208;8.904;2023-05-10T06:54:52;1.57;;;0.80;;
8714;SDS011;4394;51.208;8.904;2023-05-10T06:57:40;3.00;;;1.00;;
8714;SDS011;4394;51.208;8.904;2023-05-10T07:00:28;0.83;;;0.83;;
8714;SDS011;4394;51.208;8.904;2023-05-10T07:03:17;3.73;;;0.87;;
8714;SDS011;4394;51.208;8.904;2023-05-10T07:06:05;2.53;;;0.87;;
8714;SDS011;4394;51.208;8.904;2023-05-10T07:09:03;1.60;;;1.00;;
8714;SDS011;4394;51.208;8.904;2023-05-10T07:11:53;3.50;;;0.90;;
8714;SDS011;4394;51.208;8.904;2023-05-10T07:14:41;2.00;;;0.90;;
8714;SDS011;4394;51.208;8.904;2023-05-10T07:17:29;0.83;;;0.83;;
8714;SDS011;4394;51.208;8.904;2023-05-10T07:20:17;0.83;;;0.83;;
8714;SDS011;4394;51.208;8.904;2023-05-10T07:23:05;1.40;;;1.07;;
8714;SDS011;4394;51.208;8.904;2023-05-10T07:25:53;1.30;;;1.20;;
8714;SDS011;4394;51.208;8.904;2023-05-10T07:28:44;1.27;;;1.17;;
8714;SDS011;4394;51.208;8.904;2023-05-10T07:31:33;1.07;;;0.97;;
8714;SDS011;4394;51.208;8.904;2023-05-10T07:34:21;1.90;;;1.20;;
8714;SDS011;4394;51.208;8.904;2023-05-10T07:37:09;1.30;;;1.20;;
8714;SDS011;4394;51.208;8.904;2023-05-10T07:39:57;1.40;;;1.30;;
8714;SDS011;4394;51.208;8.904;2023-05-10T07:42:45;1.87;;;1.50;;
8714;SDS011;4394;51.208;8.904;2023-05-10T07:45:35;1.40;;;1.30;;
8714;SDS011;4394;51.208;8.904;2023-05-10T07:48:23;1.37;;;1.27;;
8714;SDS011;4394;51.208;8.904;2023-05-10T07:51:11;2.30;;;1.60;;
8714;SDS011;4394;51.208;8.904;2023-05-10T07:53:59;1.93;;;1.30;;
8714;SDS011;4394;51.208;8.904;2023-05-10T07:56:48;1.83;;;1.57;;
8714;SDS011;4394;51.208;8.904;2023-05-10T07:59:36;1.50;;;1.10;;
8714;SDS011;4394;51.208;8.904;2023-05-10T08:02:25;1.50;;;1.37;;
8714;SDS011;4394;51.208;8.904;2023-05-10T08:05:13;2.87;;;1.63;;
8714;SDS011;4394;51.208;8.904;2023-05-10T08:08:02;2.00;;;1.47;;
8714;SDS011;4394;51.208;8.904;2023-05-10T08:10:50;1.77;;;1.50;;
8714;SDS011;4394;51.208;8.904;2023-05-10T08:13:38;2.73;;;1.50;;
8714;SDS011;4394;51.208;8.904;2023-05-10T08:16:26;3.80;;;1.30;;
8714;SDS011;4394;51.208;8.904;2023-05-10T08:19:16;2.67;;;1.30;;
8714;SDS011;4394;51.208;8.904;2023-05-10T08:22:05;1.87;;;1.73;;
8714;SDS011;4394;51.208;8.904;2023-05-10T08:24:53;3.33;;;1.93;;
8714;SDS011;4394;51.208;8.904;2023-05-10T08:27:42;3.30;;;1.93;;
8714;SDS011;4394;51.208;8.904;2023-05-10T08:30:31;2.43;;;2.23;;
8714;SDS011;4394;51.208;8.904;2023-05-10T08:33:19;4.83;;;2.77;;
8714;SDS011;4394;51.208;8.904;2023-05-10T08:36:08;2.67;;;2.33;;
8714;SDS011;4394;51.208;8.904;2023-05-10T08:38:57;3.77;;;2.33;;
8714;SDS011;4394;51.208;8.904;2023-05-10T08:41:45;4.17;;;2.47;;
8714;SDS011;4394;51.208;8.904;2023-05-10T08:44:35;5.13;;;2.53;;
8714;SDS011;4394;51.208;8.904;2023-05-10T08:47:24;3.90;;;2.77;;
8714;SDS011;4394;51.208;8.904;2023-05-10T08:50:13;3.53;;;2.30;;
8714;SDS011;4394;51.208;8.904;2023-05-10T08:53:06;3.77;;;2.50;;
8714;SDS011;4394;51.208;8.904;2023-05-10T08:55:56;3.50;;;2.60;;
8714;SDS011;4394;51.208;8.904;2023-05-10T08:58:45;3.73;;;3.00;;
8714;SDS011;4394;51.208;8.904;2023-05-10T09:01:33;5.63;;;2.90;;
8714;SDS011;4394;51.208;8.904;2023-05-10T09:04:23;4.70;;;3.27;;
8714;SDS011;4394;51.208;8.904;2023-05-10T09:07:12;5.43;;;3.70;;
8714;SDS011;4394;51.208;8.904;2023-05-10T09:10:01;4.60;;;3.70;;
8714;SDS011;4394;51.208;8.904;2023-05-10T09:12:50;5.97;;;3.57;;
8714;SDS011;4394;51.208;8.904;2023-05-10T09:15:38;5.50;;;3.50;;
8714;SDS011;4394;51.208;8.904;2023-05-10T09:18:26;5.40;;;3.23;;
8714;SDS011;4394;51.208;8.904;2023-05-10T09:21:14;4.87;;;3.47;;
8714;SDS011;4394;51.208;8.904;2023-05-10T09:24:02;3.57;;;3.10;;
8714;SDS011;4394;51.208;8.904;2023-05-10T09:26:53;5.20;;;3.60;;
8714;SDS011;4394;51.208;8.904;2023-05-10T09:29:43;5.37;;;3.83;;
8714;SDS011;4394;51.208;8.904;2023-05-10T09:32:37;4.87;;;3.60;;
8714;SDS011;4394;51.208;8.904;2023-05-10T09:35:27;4.60;;;3.33;;
8714;SDS011;4394;51.208;8.904;2023-05-10T09:38:16;4.77;;;3.53;;
8714;SDS011;4394;51.208;8.904;2023-05-10T09:41:04;5.00;;;3.50;;
8714;SDS011;4394;51.208;8.904;2023-05-10T09:44:05;5.23;;;3.37;;
8714;SDS011;4394;51.208;8.904;2023-05-10T09:46:55;5.33;;;3.70;;
8714;SDS011;4394;51.208;8.904;2023-05-10T09:49:43;4.90;;;3.60;;
8714;SDS011;4394;51.208;8.904;2023-05-10T09:52:35;4.03;;;3.53;;
8714;SDS011;4394;51.208;8.904;2023-05-10T09:55:38;5.83;;;4.23;;
8714;SDS011;4394;51.208;8.904;2023-05-10T09:58:27;5.77;;;4.03;;
8714;SDS011;4394;51.208;8.904;2023-05-10T10:01:16;6.17;;;4.00;;
8714;SDS011;4394;51.208;8.904;2023-05-10T10:04:05;6.50;;;4.20;;
8714;SDS011;4394;51.208;8.904;2023-05-10T10:07:01;8.43;;;4.67;;
8714;SDS011;4394;51.208;8.904;2023-05-10T10:09:50;7.00;;;4.90;;
8714;SDS011;4394;51.208;8.904;2023-05-10T10:12:39;7.03;;;4.53;;
8714;SDS011;4394;51.208;8.904;2023-05-10T10:15:28;7.80;;;5.13;;
8714;SDS011;4394;51.208;8.904;2023-05-10T10:18:17;5.30;;;4.30;;
8714;SDS011;4394;51.208;8.904;2023-05-10T10:21:10;7.00;;;4.80;;
8714;SDS011;4394;51.208;8.904;2023-05-10T10:24:00;6.67;;;4.07;;
8714;SDS011;4394;51.208;8.904;2023-05-10T10:26:51;6.40;;;4.40;;
8714;SDS011;4394;51.208;8.904;2023-05-10T10:29:45;7.23;;;4.33;;
8714;SDS011;4394;51.208;8.904;2023-05-10T10:32:42;4.53;;;3.87;;
8714;SDS011;4394;51.208;8.904;2023-05-10T10:35:58;4.97;;;3.70;;
8714;SDS011;4394;51.208;8.904;2023-05-10T10:38:59;4.97;;;3.97;;
8714;SDS011;4394;51.208;8.904;2023-05-10T10:41:50;5.47;;;4.00;;
8714;SDS011;4394;51.208;8.904;2023-05-10T10:44:39;7.73;;;4.30;;
8714;SDS011;4394;51.208;8.904;2023-05-10T10:47:28;5.83;;;3.77;;
8714;SDS011;4394;51.208;8.904;2023-05-10T10:50:19;5.33;;;4.03;;
8714;SDS011;4394;51.208;8.904;2023-05-10T10:53:11;4.63;;;3.80;;
8714;SDS011;4394;51.208;8.904;2023-05-10T10:56:06;4.83;;;3.83;;
8714;SDS011;4394;51.208;8.904;2023-05-10T10:58:58;5.23;;;3.90;;
8714;SDS011;4394;51.208;8.904;2023-05-10T11:01:51;6.17;;;4.57;;
8714;SDS011;4394;51.208;8.904;2023-05-10T11:04:42;8.83;;;4.80;;
8714;SDS011;4394;51.208;8.904;2023-05-10T11:07:33;7.90;;;4.87;;
8714;SDS011;4394;51.208;8.904;2023-05-10T11:10:22;7.20;;;4.60;;
8714;SDS011;4394;51.208;8.904;2023-05-10T11:13:11;7.57;;;4.97;;
8714;SDS011;4394;51.208;8.904;2023-05-10T11:16:09;6.70;;;4.70;;
8714;SDS011;4394;51.208;8.904;2023-05-10T11:18:59;5.63;;;4.40;;
8714;SDS011;4394;51.208;8.904;2023-05-10T11:21:50;5.33;;;4.20;;
8714;SDS011;4394;51.208;8.904;2023-05-10T11:24:59;4.97;;;3.40;;
8714;SDS011;4394;51.208;8.904;2023-05-10T11:27:50;4.30;;;3.60;;
8714;SDS011;4394;51.208;8.904;2023-05-10T11:30:38;5.57;;;3.83;;
8714;SDS011;4394;51.208;8.904;2023-05-10T11:33:27;5.93;;;3.37;;
8714;SDS011;4394;51.208;8.904;2023-05-10T11:36:17;4.37;;;2.93;;
8714;SDS011;4394;51.208;8.904;2023-05-10T11:39:05;6.23;;;3.50;;
8714;SDS011;4394;51.208;8.904;2023-05-10T11:41:54;4.17;;;2.93;;
8714;SDS011;4394;51.208;8.904;2023-05-10T11:44:45;3.93;;;3.07;;
8714;SDS011;4394;51.208;8.904;2023-05-10T11:47:34;4.00;;;3.00;;
8714;SDS011;4394;51.208;8.904;2023-05-10T11:50:23;3.33;;;3.03;;
8714;SDS011;4394;51.208;8.904;2023-05-10T11:53:12;3.90;;;3.10;;
8714;SDS011;4394;51.208;8.904;2023-05-10T11:56:04;3.67;;;3.37;;
8714;SDS011;4394;51.208;8.904;2023-05-10T11:58:53;4.70;;;2.77;;
8714;SDS011;4394;51.208;8.904;2023-05-10T12:01:44;4.23;;;3.10;;
8714;SDS011;4394;51.208;8.904;2023-05-10T12:04:32;4.00;;;2.80;;
8714;SDS011;4394;51.208;8.904;2023-05-10T12:07:20;2.60;;;2.40;;
8714;SDS011;4394;51.208;8.904;2023-05-10T12:10:09;5.13;;;2.63;;
8714;SDS011;4394;51.208;8.904;2023-05-10T12:13:01;2.53;;;2.33;;
8714;SDS011;4394;51.208;8.904;2023-05-10T12:15:49;3.63;;;2.50;;
8714;SDS011;4394;51.208;8.904;2023-05-10T12:18:40;4.00;;;2.53;;
8714;SDS011;4394;51.208;8.904;2023-05-10T12:21:29;3.80;;;2.57;;
8714;SDS011;4394;51.208;8.904;2023-05-10T12:24:18;2.73;;;2.53;;
8714;SDS011;4394;51.208;8.904;2023-05-10T12:27:08;2.90;;;2.60;;
8714;SDS011;4394;51.208;8.904;2023-05-10T12:29:58;3.60;;;2.70;;
8714;SDS011;4394;51.208;8.904;2023-05-10T12:32:47;4.57;;;2.73;;
8714;SDS011;4394;51.208;8.904;2023-05-10T12:35:44;4.07;;;3.43;;
8714;SDS011;4394;51.208;8.904;2023-05-10T12:38:33;3.30;;;2.87;;
8714;SDS011;4394;51.208;8.904;2023-05-10T12:41:24;3.80;;;2.73;;
8714;SDS011;4394;51.208;8.904;2023-05-10T12:44:12;3.90;;;3.07;;
8714;SDS011;4394;51.208;8.904;2023-05-10T12:47:00;3.17;;;2.80;;
8714;SDS011;4394;51.208;8.904;2023-05-10T12:49:48;5.00;;;3.40;;
8714;SDS011;4394;51.208;8.904;2023-05-10T12:52:38;5.67;;;3.70;;
8714;SDS011;4394;51.208;8.904;2023-05-10T12:55:26;6.90;;;4.13;;
8714;SDS011;4394;51.208;8.904;2023-05-10T12:58:14;5.13;;;4.30;;
8714;SDS011;4394;51.208;8.904;2023-05-10T13:01:19;6.90;;;4.80;;
8714;SDS011;4394;51.208;8.904;2023-05-10T13:04:08;7.10;;;5.73;;
8714;SDS011;4394;51.208;8.904;2023-05-10T13:06:56;9.07;;;5.97;;
8714;SDS011;4394;51.208;8.904;2023-05-10T13:09:46;8.30;;;6.33;;
8714;SDS011;4394;51.208;8.904;2023-05-10T13:12:34;7.23;;;6.33;;
8714;SDS011;4394;51.208;8.904;2023-05-10T13:15:22;6.33;;;3.83;;
8714;SDS011;4394;51.208;8.904;2023-05-10T13:18:11;5.67;;;3.30;;
8714;SDS011;4394;51.208;8.904;2023-05-10T13:20:59;4.20;;;3.00;;
8714;SDS011;4394;51.208;8.904;2023-05-10T13:23:47;4.63;;;2.93;;
8714;SDS011;4394;51.208;8.904;2023-05-10T13:26:36;6.53;;;3.10;;
8714;SDS011;4394;51.208;8.904;2023-05-10T13:29:24;3.67;;;3.17;;
8714;SDS011;4394;51.208;8.904;2023-05-10T13:32:12;4.93;;;3.50;;
8714;SDS011;4394;51.208;8.904;2023-05-10T13:35:01;7.83;;;3.73;;
8714;SDS011;4394;51.208;8.904;2023-05-10T13:37:49;5.93;;;3.40;;
8714;SDS011;4394;51.208;8.904;2023-05-10T13:40:38;4.57;;;3.00;;
8714;SDS011;4394;51.208;8.904;2023-05-10T13:43:28;5.43;;;3.30;;
8714;SDS011;4394;51.208;8.904;2023-05-10T13:46:16;4.97;;;3.57;;
8714;SDS011;4394;51.208;8.904;2023-05-10T13:49:05;5.07;;;3.03;;
8714;SDS011;4394;51.208;8.904;2023-05-10T13:51:53;6.63;;;3.13;;
8714;SDS011;4394;51.208;8.904;2023-05-10T13:54:41;6.33;;;2.90;;
8714;SDS011;4394;51.208;8.904;2023-05-10T13:57:29;2.20;;;1.97;;
8714;SDS011;4394;51.208;8.904;2023-05-10T14:00:19;5.77;;;2.60;;
8714;SDS011;4394;51.208;8.904;2023-05-10T14:03:07;3.97;;;1.70;;
8714;SDS011;4394;51.208;8.904;2023-05-10T14:05:57;1.77;;;1.23;;
8714;SDS011;4394;51.208;8.904;2023-05-10T14:08:45;1.83;;;1.00;;
8714;SDS011;4394;51.208;8.904;2023-05-10T14:11:34;2.53;;;1.20;;
8714;SDS011;4394;51.208;8.904;2023-05-10T14:14:22;1.93;;;1.70;;
8714;SDS011;4394;51.208;8.904;2023-05-10T14:17:11;2.27;;;1.80;;
8714;SDS011;4394;51.208;8.904;2023-05-10T14:19:59;4.53;;;3.00;;
8714;SDS011;4394;51.208;8.904;2023-05-10T14:22:47;3.70;;;3.10;;
8714;SDS011;4394;51.208;8.904;2023-05-10T14:25:35;4.27;;;3.27;;
8714;SDS011;4394;51.208;8.904;2023-05-10T14:28:24;6.07;;;2.97;;
8714;SDS011;4394;51.208;8.904;2023-05-10T14:31:12;5.13;;;3.10;;
8714;SDS011;4394;51.208;8.904;2023-05-10T14:34:01;4.90;;;3.53;;
8714;SDS011;4394;51.208;8.904;2023-05-10T14:36:50;5.60;;;4.10;;
8714;SDS011;4394;51.208;8.904;2023-05-10T14:39:37;5.50;;;4.17;;
8714;SDS011;4394;51.208;8.904;2023-05-10T14:42:26;7.50;;;4.53;;
8714;SDS011;4394;51.208;8.904;2023-05-10T14:45:14;5.27;;;4.37;;
8714;SDS011;4394;51.208;8.904;2023-05-10T14:48:03;5.73;;;3.93;;
8714;SDS011;4394;51.208;8.904;2023-05-10T14:50:53;5.97;;;4.40;;
8714;SDS011;4394;51.208;8.904;2023-05-10T14:53:42;4.60;;;3.90;;
8714;SDS011;4394;51.208;8.904;2023-05-10T14:56:30;6.40;;;4.10;;
8714;SDS011;4394;51.208;8.904;2023-05-10T14:59:18;6.43;;;4.07;;
8714;SDS011;4394;51.208;8.904;2023-05-10T15:02:07;4.80;;;3.43;;
8714;SDS011;4394;51.208;8.904;2023-05-10T15:04:57;4.50;;;3.50;;
8714;SDS011;4394;51.208;8.904;2023-05-10T15:07:47;4.90;;;3.80;;
8714;SDS011;4394;51.208;8.904;2023-05-10T15:10:35;3.70;;;2.97;;
8714;SDS011;4394;51.208;8.904;2023-05-10T15:13:24;5.17;;;3.40;;
8714;SDS011;4394;51.208;8.904;2023-05-10T15:16:12;4.93;;;3.50;;
8714;SDS011;4394;51.208;8.904;2023-05-10T15:19:00;3.37;;;3.07;;
8714;SDS011;4394;51.208;8.904;2023-05-10T15:21:48;5.07;;;3.67;;
8714;SDS011;4394;51.208;8.904;2023-05-10T15:24:38;5.63;;;3.53;;
8714;SDS011;4394;51.208;8.904;2023-05-10T15:27:26;5.93;;;3.57;;
8714;SDS011;4394;51.208;8.904;2023-05-10T15:30:14;4.43;;;3.60;;
8714;SDS011;4394;51.208;8.904;2023-05-10T15:33:02;5.13;;;3.60;;
8714;SDS011;4394;51.208;8.904;2023-05-10T15:35:50;4.37;;;3.53;;
8714;SDS011;4394;51.208;8.904;2023-05-10T15:38:39;4.47;;;3.77;;
8714;SDS011;4394;51.208;8.904;2023-05-10T15:41:29;6.67;;;3.90;;
8714;SDS011;4394;51.208;8.904;2023-05-10T15:44:17;5.27;;;3.40;;
8714;SDS011;4394;51.208;8.904;2023-05-10T15:47:05;5.00;;;4.00;;
8714;SDS011;4394;51.208;8.904;2023-05-10T15:49:53;6.23;;;4.20;;
8714;SDS011;4394;51.208;8.904;2023-05-10T15:52:41;13.37;;;7.23;;
8714;SDS011;4394;51.208;8.904;2023-05-10T15:55:29;21.77;;;11.33;;
8714;SDS011;4394;51.208;8.904;2023-05-10T15:58:18;10.33;;;6.00;;
8714;SDS011;4394;51.208;8.904;2023-05-10T16:01:06;5.70;;;4.03;;
8714;SDS011;4394;51.208;8.904;2023-05-10T16:03:55;4.53;;;4.00;;
8714;SDS011;4394;51.208;8.904;2023-05-10T16:06:43;5.57;;;4.00;;
8714;SDS011;4394;51.208;8.904;2023-05-10T16:09:31;4.43;;;3.70;;
8714;SDS011;4394;51.208;8.904;2023-05-10T16:12:19;4.23;;;3.80;;
8714;SDS011;4394;51.208;8.904;2023-05-10T16:15:09;5.33;;;4.07;;
8714;SDS011;4394;51.208;8.904;2023-05-10T16:17:57;5.47;;;4.97;;
8714;SDS011;4394;51.208;8.904;2023-05-10T16:20:45;4.67;;;4.20;;
8714;SDS011;4394;51.208;8.904;2023-05-10T16:23:33;6.17;;;4.10;;
8714;SDS011;4394;51.208;8.904;2023-05-10T16:26:22;6.27;;;4.03;;
8714;SDS011;4394;51.208;8.904;2023-05-10T16:29:10;5.30;;;3.70;;
8714;SDS011;4394;51.208;8.904;2023-05-10T16:31:59;4.70;;;3.60;;
8714;SDS011;4394;51.208;8.904;2023-05-10T16:34:47;5.23;;;4.10;;
8714;SDS011;4394;51.208;8.904;2023-05-10T16:37:36;4.83;;;4.33;;
8714;SDS011;4394;51.208;8.904;2023-05-10T16:40:24;6.87;;;4.30;;
8714;SDS011;4394;51.208;8.904;2023-05-10T16:43:12;4.87;;;3.80;;
8714;SDS011;4394;51.208;8.904;2023-05-10T16:46:00;5.27;;;3.90;;
8714;SDS011;4394;51.208;8.904;2023-05-10T16:48:49;4.10;;;3.57;;
8714;SDS011;4394;51.208;8.904;2023-05-10T16:51:37;5.03;;;4.43;;
8714;SDS011;4394;51.208;8.904;2023-05-10T16:54:27;4.93;;;4.03;;
8714;SDS011;4394;51.208;8.904;2023-05-10T16:57:15;5.10;;;3.77;;
8714;SDS011;4394;51.208;8.904;2023-05-10T17:00:03;6.10;;;4.03;;
8714;SDS011;4394;51.208;8.904;2023-05-10T17:02:53;6.33;;;4.70;;
8714;SDS011;4394;51.208;8.904;2023-05-10T17:05:42;4.90;;;4.00;;
8714;SDS011;4394;51.208;8.904;2023-05-10T17:08:31;4.77;;;3.53;;
8714;SDS011;4394;51.208;8.904;2023-05-10T17:11:19;6.20;;;4.07;;
8714;SDS011;4394;51.208;8.904;2023-05-10T17:14:07;6.30;;;3.77;;
8714;SDS011;4394;51.208;8.904;2023-05-10T17:16:55;5.50;;;3.80;;
8714;SDS011;4394;51.208;8.904;2023-05-10T17:19:43;4.43;;;3.93;;
8714;SDS011;4394;51.208;8.904;2023-05-10T17:22:33;5.53;;;4.20;;
8714;SDS011;4394;51.208;8.904;2023-05-10T17:25:21;6.87;;;3.73;;
8714;SDS011;4394;51.208;8.904;2023-05-10T17:28:09;5.97;;;3.90;;
8714;SDS011;4394;51.208;8.904;2023-05-10T17:30:57;4.43;;;3.90;;
8714;SDS011;4394;51.208;8.904;2023-05-10T17:33:45;6.30;;;5.50;;